Latest Coastal Weather Observations for Cape Otway

IDV60701

Issued at 1:02 pm EDT Sunday 11 December 2016 (issued every 10 minutes, with the page automatically refreshed every 10 minutes)

About coastal observations | Map of coastal stations | Coastal observations for VIC | Marine services | Other Formats
Station Details ID: 090015 Name: CAPE OTWAY LIGHTHOUSE Lat: -38.86 Lon: 143.51 Height: 82.0 m
Data from the previous 72 hours. | See also: Recent months at Cape Otway
Date/Time
EDT
Temp
°C
Wind Pressure Rain since
9am
mm
Weather Cloud Vis
km
Sea
Height
m
Swell
Dir  Spd
kts
Gust
kts
hPa Trend Height
m
Period
s
Dir
11/12:30pm 17.1 SE 7 11 1024.9 - 0.0 - - - - - - -
11/12:00pm 18.4 SE 7 12 1024.9 - 0.0 - - - - - - -
11/11:30am 17.4 SE 7 12 1025.1 - 0.0 - - - - - - -
11/11:00am 15.7 SE 7 11 1025.1 - 0.0 - - - - - - -
11/10:30am 16.1 SE 6 10 1025.1 - 0.0 - - - - - - -
11/10:00am 16.4 SE 6 9 1025.3 - 0.0 - - - - - - -
11/09:30am 15.4 SSE 6 9 1025.2 - 0.0 - - - - - - -
11/09:00am 15.2 SSE 6 10 1024.9 - 0.4 - - - - - - -
11/08:30am 14.5 WSW 4 8 1024.5 - 0.4 - - - - - - -
11/08:00am 14.1 SW 4 8 1024.2 - 0.4 - - - - - - -
11/07:30am 13.7 SSE 5 9 1023.8 - 0.4 - - - - - - -
11/07:00am 13.4 SW 5 9 1023.4 - 0.4 - - - - - - -
11/06:30am 13.1 W 4 8 1023.3 - 0.4 - - - - - - -
11/06:00am 12.9 WSW 4 7 1023.0 - 0.4 - - - - - - -
11/05:30am 13.0 SW 6 8 1022.8 - 0.4 - - - - - - -
11/05:00am 12.9 SW 4 6 1022.7 - 0.4 - - - - - - -
11/04:30am 13.0 SW 4 7 1022.7 - 0.4 - - - - - - -
11/04:00am 13.0 SSW 5 8 1022.8 - 0.4 - - - - - - -
11/03:30am 11.9 WNW 3 4 1022.9 - 0.4 - - - - - - -
11/03:00am 12.4 WSW 3 5 1022.9 - 0.4 - - - - - - -
11/02:30am 12.4 SSW 5 8 1023.1 - 0.4 - - - - - - -
11/02:00am 12.8 SSW 9 15 1023.2 - 0.4 - - - - - - -
11/01:30am 12.8 SSW 7 9 1023.4 - 0.4 - - - - - - -
11/01:00am 12.6 SW 4 7 1023.6 - 0.4 - - - - - - -
11/12:30am 12.5 SW 7 9 1023.9 - 0.4 - - - - - - -
11/12:00am 12.4 SW 9 12 1024.1 - 0.4 - - - - - - -
 
Date/Time
EDT
Temp
°C
Wind Pressure Rain since
9am
mm
Weather Cloud Vis
km
Sea
Height
m
Swell
Dir  Spd
kts
Gust
kts
hPa Trend Height
m
Period
s
Dir
10/11:30pm 12.2 SW 7 11 1024.1 - 0.4 - - - - - - -
10/11:00pm 12.1 SSW 11 17 1024.2 - 0.4 - - - - - - -
10/10:30pm 11.7 WSW 10 17 1024.2 - 0.4 - - - - - - -
10/10:00pm 12.2 SW 13 16 1024.0 - 0.0 - - - - - - -
10/09:30pm 12.2 W 10 16 1024.0 - 0.0 - - - - - - -
10/09:00pm 12.8 WSW 12 16 1023.7 - 0.0 - - - - - - -
10/08:30pm 13.1 WSW 13 17 1023.5 - 0.0 - - - - - - -
10/08:00pm 13.4 W 11 18 1023.3 - 0.0 - - - - - - -
10/07:30pm 13.6 W 13 17 1023.2 - 0.0 - - - - - - -
10/07:00pm 13.7 W 12 15 1023.0 - 0.0 - - - - - - -
10/06:30pm 14.8 W 12 16 1022.8 - 0.0 - - - - - - -
10/06:00pm 14.2 W 12 17 1022.9 - 0.0 - - - - - - -
10/05:30pm 14.1 WSW 15 20 1022.9 - 0.0 - - - - - - -
10/05:00pm 14.5 W 13 19 1023.0 - 0.0 - - - - - - -
10/04:30pm 15.2 WSW 13 19 1023.1 - 0.0 - - - - - - -
10/04:00pm 14.4 WSW 14 19 1023.1 - 0.0 - - - - - - -
10/03:30pm 15.5 W 14 19 1023.3 - 0.0 - - - - - - -
10/03:00pm 15.7 WSW 12 17 1023.4 - 0.0 - - - - - - -
10/02:30pm 15.3 W 13 17 1023.6 - 0.0 - - - - - - -
10/02:00pm 15.1 W 12 16 1023.8 - 0.0 - - - - - - -
10/01:30pm 14.3 W 9 13 1023.9 - 0.0 - - - - - - -
10/01:00pm 13.5 WNW 9 13 1024.2 - 0.0 - - - - - - -
10/12:30pm 13.8 WSW 13 17 1024.3 - 0.0 - - - - - - -
10/12:00pm 14.2 W 11 17 1024.3 - 0.0 - - - - - - -
10/11:30am 15.2 W 10 14 1024.2 - 0.0 - - - - - - -
10/11:00am 14.0 WSW 10 15 1024.2 - 0.0 - - - - - - -
10/10:30am 13.4 W 10 14 1024.2 - 0.0 - - - - - - -
10/10:00am 13.4 W 8 12 1024.2 - 0.0 - - - - - - -
10/09:30am 13.7 WNW 7 11 1023.9 - 0.0 - - - - - - -
10/09:00am 12.6 WNW 8 13 1023.8 - 0.0 - - - - - - -
10/08:30am 12.4 W 10 14 1023.7 - 0.0 - - - - - - -
10/08:00am 12.6 W 8 12 1023.4 - 0.0 - - - - - - -
10/07:30am 12.5 WSW 10 14 1023.0 - 0.0 - - - - - - -
10/07:00am 12.3 W 9 14 1022.6 - 0.0 - - - - - - -
10/06:30am 12.1 WSW 9 13 1022.2 - 0.0 - - - - - - -
10/06:00am 12.1 W 10 14 1022.1 - 0.0 - - - - - - -
10/05:30am 12.0 W 8 16 1021.7 - 0.0 - - - - - - -
10/05:00am 12.1 W 9 12 1021.5 - 0.0 - - - - - - -
10/04:30am 12.1 WSW 8 12 1021.4 - 0.0 - - - - - - -
10/04:00am 12.2 WSW 11 15 1021.5 - 0.0 - - - - - - -
10/03:30am 12.0 WSW 12 16 1021.4 - 0.0 - - - - - - -
10/03:00am 12.0 SW 12 15 1021.5 - 0.0 - - - - - - -
10/02:30am 11.6 SW 10 14 1021.7 - 0.0 - - - - - - -
10/02:00am 11.1 SW 17 24 1021.9 - 0.0 - - - - - - -
10/01:30am 12.1 WSW 12 17 1022.0 - 0.0 - - - - - - -
10/01:00am 12.1 WSW 9 12 1022.1 - 0.0 - - - - - - -
10/12:30am 12.0 SW 10 14 1022.4 - 0.0 - - - - - - -
10/12:00am 11.7 SSW 11 18 1022.7 - 0.0 - - - - - - -
 
Date/Time
EDT
Temp
°C
Wind Pressure Rain since
9am
mm
Weather Cloud Vis
km
Sea
Height
m
Swell
Dir  Spd
kts
Gust
kts
hPa Trend Height
m
Period
s
Dir
09/11:30pm 12.0 SW 12 16 1022.6 - 0.0 - - - - - - -
09/11:00pm 12.0 SW 13 17 1022.5 - 0.0 - - - - - - -
09/10:30pm 12.2 SW 13 18 1022.5 - 0.0 - - - - - - -
09/10:00pm 12.1 WSW 12 17 1022.5 - 0.0 - - - - - - -
09/09:30pm 12.1 SW 16 21 1022.1 - 0.0 - - - - - - -
09/09:00pm 11.9 SW 17 21 1022.1 - 0.0 - - - - - - -
09/08:30pm 12.1 SW 17 22 1021.9 - 0.0 - - - - - - -
09/08:00pm 12.5 SW 15 20 1021.7 - 0.0 - - - - - - -
09/07:30pm 12.0 SW 16 22 1021.4 - 0.0 - - - - - - -
09/07:00pm 12.5 SW 17 23 1021.0 - 0.0 - - - - - - -
09/06:30pm 12.7 SW 17 21 1020.7 - 0.0 - - - - - - -
09/06:00pm 13.2 WSW 15 20 1020.4 - 0.0 - - - - - - -
09/05:30pm 12.4 WSW 17 25 1020.3 - 0.0 - - - - - - -
09/05:00pm 13.3 SW 16 20 1020.3 - 0.0 - - - - - - -
09/04:30pm 13.1 SW 17 22 1020.2 - 0.0 - - - - - - -
09/04:00pm 13.1 SW 15 20 1020.2 - 0.0 - - - - - - -
09/03:30pm 13.3 WSW 13 18 1020.1 - 0.0 - - - - - - -
09/03:00pm 11.5 WSW 17 26 1020.0 - 0.0 - - - - - - -
09/02:44pm 12.3 SW 19 29 1019.7 - 0.0 - - - - - - -
09/02:30pm 13.6 SW 17 21 1019.6 - 0.0 - - - - - - -
09/02:00pm 14.5 WSW 18 24 1019.5 - 0.0 - - - - - - -
09/01:30pm 14.1 WSW 18 24 1019.2 - 0.0 - - - - - - -
09/01:00pm 13.3 WSW 15 22 1019.1 - 0.0 - - - - - - -
09/12:39pm 11.1 SW 21 31 1019.0 - 0.0 - - - - - - -
09/12:30pm 12.8 SW 20 27 1018.7 - 0.0 - - - - - - -
09/12:00pm 13.0 SW 17 24 1018.4 - 0.0 - - - - - - -
09/11:30am 13.5 SW 19 26 1018.0 - 0.0 - - - - - - -
09/11:00am 13.7 SW 19 24 1017.7 - 0.0 - - - - - - -
09/10:30am 13.0 SW 20 27 1017.3 - 0.0 - - - - - - -
09/10:00am 12.1 SSW 20 30 1017.1 - 0.0 - - - - - - -
09/09:47am 11.8 SW 22 32 1016.9 - 0.0 - - - - - - -
09/09:30am 12.2 SW 21 27 1016.8 - 0.0 - - - - - - -
09/09:00am 12.3 SW 22 29 1016.2 - 2.6 - - - - - - -
09/08:41am 12.4 SSW 21 31 1015.9 - 2.6 - - - - - - -
09/08:30am 12.3 SW 23 31 1015.6 - 2.6 - - - - - - -
09/08:00am 11.8 SW 23 29 1014.9 - 2.6 - - - - - - -
09/07:37am 11.9 SW 23 34 1014.5 - 2.6 - - - - - - -
09/07:30am 11.8 SW 23 30 1014.3 - 2.6 - - - - - - -
09/07:03am 11.3 SW 23 33 1013.7 - 2.6 - - - - - - -
09/07:00am 11.2 SW 24 33 1013.7 - 2.6 - - - - - - -
09/06:30am 11.2 SSW 22 32 1013.1 - 2.6 - - - - - - -
09/06:00am 11.4 SW 24 35 1012.5 - 2.6 - - - - - - -
09/05:30am 10.8 SW 26 37 1012.0 - 2.6 - - - - - - -
09/05:00am 11.3 SW 27 37 1011.3 - 2.6 - - - - - - -
09/04:33am 11.1 SW 24 35 1010.9 - 2.6 - - - - - - -
09/04:30am 10.9 SW 24 32 1010.9 - 2.6 - - - - - - -
09/04:13am 10.1 SW 27 47 1011.0 - 2.4 - - - - - - -
09/04:10am 9.8 SW 31 47 1010.9 - 2.4 - - - - - - -
09/04:05am 10.5 SW 30 47 1010.5 - 2.4 - - - - - - -
09/04:01am 11.2 SW 25 38 1010.5 - 2.4 - - - - - - -
09/04:00am 11.3 SW 24 33 1010.6 - 2.4 - - - - - - -
09/03:47am 11.5 SW 24 34 1010.4 - 2.4 - - - - - - -
09/03:30am 11.3 SW 27 36 1010.2 - 2.4 - - - - - - -
09/03:00am 9.7 SW 25 35 1010.1 - 2.4 Rain - - - - - -
09/02:30am 10.2 SW 25 42 1009.8 - 2.0 - - - - - - -
09/02:21am 10.9 SSW 24 34 1009.7 - 2.0 - - - - - - -
09/02:00am 11.3 SW 28 35 1009.4 - 2.0 - - - - - - -
09/01:33am 11.4 SW 27 37 1009.2 - 2.0 - - - - - - -
09/01:30am 11.2 SW 27 35 1009.2 - 2.0 - - - - - - -
09/01:00am 12.0 SW 25 35 1009.1 - 1.8 - - - - - - -
09/12:55am 12.2 SW 25 35 1008.9 - 1.8 - - - - - - -
09/12:30am 12.1 SW 28 35 1008.8 - 1.8 - - - - - - -
09/12:05am 12.3 WSW 24 34 1008.7 - 1.8 - - - - - - -
09/12:00am 12.3 SW 27 34 1008.7 - 1.8 - - - - - - -
 
Date/Time
EDT
Temp
°C
Wind Pressure Rain since
9am
mm
Weather Cloud Vis
km
Sea
Height
m
Swell
Dir  Spd
kts
Gust
kts
hPa Trend Height
m
Period
s
Dir
08/11:30pm 12.3 SW 27 37 1008.3 - 1.8 - - - - - - -
08/11:00pm 12.6 SW 30 40 1007.6 - 1.8 - - - - - - -
08/10:30pm 12.5 SW 27 39 1007.0 - 1.6 - - - - - - -
08/10:00pm 11.8 SW 25 36 1006.7 - 1.6 - - - - - - -
08/09:44pm 11.7 SW 27 37 1006.3 - 1.6 - - - - - - -
08/09:30pm 12.4 SW 27 35 1006.2 - 1.4 - - - - - - -
08/09:00pm 13.1 WSW 26 36 1005.2 - 1.4 - - - - - - -
08/08:30pm 13.4 WSW 25 37 1004.6 - 1.4 - - - - - - -
08/08:00pm 13.5 WSW 28 39 1003.7 - 1.4 - - - - - - -
08/07:30pm 13.3 WSW 31 43 1003.0 - 1.4 - - - - - - -
08/07:00pm 13.1 WSW 24 38 1001.9 - 1.4 - - - - - - -
08/06:30pm 13.2 WSW 27 37 1001.0 - 1.2 - - - - - - -
08/06:00pm 13.5 WSW 27 38 1000.1 - 1.2 Recent precip. - - - - - -
08/05:30pm 13.1 WSW 28 38 999.2 - 1.2 - - - - - - -
08/05:00pm 13.7 W 30 40 998.3 - 0.4 - - - - - - -
08/04:30pm 14.7 W 25 38 997.9 - 0.4 - - - - - - -
08/04:00pm 13.3 W 28 40 997.4 - 0.2 - - - - - - -
08/03:30pm 14.8 WNW 26 39 996.9 - 0.0 - - - - - - -
08/03:00pm 15.6 W 27 42 996.7 - 0.0 - - - - - - -
08/02:30pm 15.2 WNW 28 43 996.7 - 0.0 - - - - - - -
08/02:00pm 14.8 WNW 28 42 996.5 - 0.0 - - - - - - -
08/01:30pm 15.8 WNW 32 45 996.0 - 0.0 - - - - - - -

Other Formats:

Comma delimited format used in spreadsheet applications
http://www.bom.gov.au/fwo/IDV60701/IDV60701.94842.axf

JavaScript Object Notation format (JSON) in row-major order
http://www.bom.gov.au/fwo/IDV60701/IDV60701.94842.json